Wickliffe, Ohio
Current Conditions -  °F | °C
As of 10:45 PM on Thursday 18 Dec 2014 (Local Time) from KCGF Reporting Station
Light Snow Light Snow  
Wind Chill: 23°   Ceiling: 600
Heat Index: 32°   Visibility: 1.5mi
Dew Point: 30°   Wind: 12mph
Humidity: 93%   Direction: 270°W
Pressure: 30.15"   Gusts: NA
Location:  41.6°N, 81.48°W
Report Text: KCGF 190345Z 27010KT 1 1/2SM -SN VV006 00/M01 A3015
Loading
Personal Weather Stations






























Interactive Weather Map New forecast layout! Learn more

10-Day Weather Forecast

Advertisements
Track Severe Weather on mobile